createdAt,value
2023-04-19T00:01:46.964Z,13.20
2023-04-19T00:04:15.422Z,13.20
2023-04-19T00:06:42.978Z,13.20
2023-04-19T00:09:10.007Z,13.20
2023-04-19T00:11:37.048Z,13.10
2023-04-19T00:14:04.309Z,13.20
2023-04-19T00:16:31.390Z,13.10
2023-04-19T00:18:58.435Z,13.10
2023-04-19T00:21:26.639Z,13.10
2023-04-19T00:23:54.232Z,13.20
2023-04-19T00:26:21.464Z,13.10
2023-04-19T00:28:51.893Z,13.20
2023-04-19T00:31:18.978Z,13.10
2023-04-19T00:33:46.056Z,13.10
2023-04-19T00:36:13.048Z,13.10
2023-04-19T00:38:40.898Z,13.10
2023-04-19T00:41:10.405Z,13.10
2023-04-19T00:43:37.438Z,13.10
2023-04-19T00:46:05.123Z,13.10
2023-04-19T00:48:32.454Z,13.00
2023-04-19T00:50:59.656Z,13.00
2023-04-19T00:53:26.718Z,13.00
2023-04-19T00:55:56.973Z,13.00
2023-04-19T00:58:25.448Z,12.90
2023-04-19T01:00:52.747Z,12.90
2023-04-19T01:03:20.750Z,12.90
2023-04-19T01:05:48.954Z,12.80
2023-04-19T01:08:16.039Z,12.80
2023-04-19T01:10:43.118Z,12.80
2023-04-19T01:13:10.142Z,12.70
2023-04-19T01:15:38.185Z,12.70
2023-04-19T01:18:05.583Z,12.60
2023-04-19T01:20:32.736Z,12.60
2023-04-19T01:23:00.054Z,12.60
2023-04-19T01:25:27.737Z,12.60
2023-04-19T01:27:54.784Z,12.50
2023-04-19T01:30:24.134Z,12.40
2023-04-19T01:32:51.251Z,12.40
2023-04-19T01:35:18.326Z,12.40
2023-04-19T01:37:45.487Z,12.40
2023-04-19T01:40:12.906Z,12.30
2023-04-19T01:42:39.922Z,12.30
2023-04-19T01:45:07.361Z,12.30
2023-04-19T01:47:34.484Z,12.30
2023-04-19T01:50:02.658Z,12.20
2023-04-19T01:52:29.682Z,12.20
2023-04-19T01:54:56.688Z,12.20
2023-04-19T01:57:23.710Z,12.30
2023-04-19T01:59:51.568Z,12.20
2023-04-19T02:02:18.720Z,12.20
2023-04-19T02:04:46.053Z,12.20
2023-04-19T02:07:13.131Z,12.20
2023-04-19T02:09:40.265Z,12.20
2023-04-19T02:12:07.589Z,12.30
2023-04-19T02:14:35.726Z,12.20
2023-04-19T02:17:03.018Z,12.20
2023-04-19T02:19:30.043Z,12.10
2023-04-19T02:21:59.742Z,12.20
2023-04-19T02:24:26.806Z,12.20
2023-04-19T02:26:53.820Z,12.20
2023-04-19T02:29:21.107Z,12.10
2023-04-19T02:31:48.668Z,12.10
2023-04-19T02:34:15.824Z,12.10
2023-04-19T02:36:43.186Z,12.10
2023-04-19T02:39:10.418Z,12.00
2023-04-19T02:41:39.009Z,12.00
2023-04-19T02:44:06.109Z,12.00
2023-04-19T02:46:34.771Z,12.00
2023-04-19T02:49:02.333Z,11.90
2023-04-19T02:51:30.878Z,11.90
2023-04-19T02:53:58.179Z,11.90
2023-04-19T02:56:25.505Z,11.90
2023-04-19T02:58:54.827Z,11.90
2023-04-19T03:01:22.025Z,11.80
2023-04-19T03:03:49.223Z,11.80
2023-04-19T03:06:17.057Z,11.80
2023-04-19T03:08:44.108Z,11.80
2023-04-19T03:11:12.810Z,11.80
2023-04-19T03:13:40.849Z,11.70
2023-04-19T03:16:08.914Z,11.70
2023-04-19T03:18:36.949Z,11.70
2023-04-19T03:21:05.020Z,11.70
2023-04-19T03:23:40.223Z,11.70
2023-04-19T03:26:07.541Z,11.60
2023-04-19T03:28:47.157Z,11.60
2023-04-19T03:31:21.160Z,11.60
2023-04-19T03:33:51.052Z,11.50
2023-04-19T03:36:20.233Z,11.60
2023-04-19T03:38:47.594Z,11.60
2023-04-19T03:41:26.328Z,11.50
2023-04-19T03:44:10.436Z,11.50
2023-04-19T03:46:41.805Z,11.50
2023-04-19T03:49:09.458Z,11.50
2023-04-19T03:51:36.836Z,11.50
2023-04-19T03:54:04.178Z,11.40
2023-04-19T03:56:31.310Z,11.40
2023-04-19T03:58:58.516Z,11.40
2023-04-19T04:01:26.837Z,11.40
2023-04-19T04:03:55.802Z,11.30
2023-04-19T04:06:23.280Z,11.40
2023-04-19T04:08:50.531Z,11.30
2023-04-19T04:11:17.621Z,11.40
2023-04-19T04:13:48.961Z,11.40
2023-04-19T04:16:19.511Z,11.30
2023-04-19T04:18:47.772Z,11.30
2023-04-19T04:21:15.682Z,11.30
2023-04-19T04:23:47.290Z,11.30
2023-04-19T04:26:25.380Z,11.30
2023-04-19T04:29:08.809Z,11.30
2023-04-19T04:31:37.297Z,11.30
2023-04-19T04:34:04.553Z,11.40
2023-04-19T04:36:36.619Z,11.40
2023-04-19T04:39:06.428Z,11.40
2023-04-19T04:41:33.480Z,11.50
2023-04-19T04:46:31.761Z,11.60
2023-04-19T04:48:58.833Z,11.60
2023-04-19T04:51:26.447Z,11.50
2023-04-19T04:53:55.714Z,11.50
2023-04-19T04:56:23.917Z,11.50
2023-04-19T04:58:51.213Z,11.50
2023-04-19T05:01:27.260Z,11.60
2023-04-19T05:03:54.461Z,11.60
2023-04-19T05:06:21.679Z,11.70
2023-04-19T05:08:48.731Z,11.70
2023-04-19T05:11:31.550Z,11.70
2023-04-19T05:13:59.078Z,11.80
2023-04-19T05:16:27.469Z,11.70
2023-04-19T05:18:55.535Z,11.70
2023-04-19T05:21:23.864Z,11.80
2023-04-19T05:23:53.705Z,11.80
2023-04-19T05:26:21.605Z,11.80
2023-04-19T05:28:50.725Z,11.90
2023-04-19T05:31:22.969Z,11.90
2023-04-19T05:34:08.411Z,11.90
2023-04-19T05:36:36.162Z,12.00
2023-04-19T05:39:03.409Z,12.00
2023-04-19T05:41:31.181Z,12.00
2023-04-19T05:43:58.183Z,12.10
2023-04-19T05:46:26.168Z,12.10
2023-04-19T05:48:53.642Z,12.10
2023-04-19T05:51:39.260Z,12.20
2023-04-19T05:54:12.782Z,12.20
2023-04-19T05:56:41.383Z,12.30
2023-04-19T05:59:08.686Z,12.30
2023-04-19T06:01:35.622Z,12.40
2023-04-19T06:04:03.141Z,12.60
2023-04-19T06:06:30.359Z,12.70
2023-04-19T06:08:57.457Z,12.70
2023-04-19T06:11:31.310Z,12.80
2023-04-19T06:13:58.799Z,12.90
2023-04-19T06:16:26.981Z,13.00
2023-04-19T06:18:54.554Z,13.10
2023-04-19T06:21:21.793Z,13.20
2023-04-19T06:23:48.741Z,13.30
2023-04-19T06:26:15.788Z,13.30
2023-04-19T06:28:44.117Z,13.70
2023-04-19T06:31:12.410Z,14.00
2023-04-19T06:33:39.495Z,14.00
2023-04-19T06:36:06.856Z,14.00
2023-04-19T06:38:33.859Z,14.20
2023-04-19T06:41:01.099Z,14.20
2023-04-19T06:43:28.091Z,14.50
2023-04-19T06:46:02.311Z,14.80
2023-04-19T06:48:29.366Z,15.10
2023-04-19T06:50:56.680Z,15.20
2023-04-19T06:53:23.928Z,15.40
2023-04-19T06:55:59.009Z,15.60
2023-04-19T06:58:26.444Z,15.60
2023-04-19T07:00:53.827Z,15.50
2023-04-19T07:03:21.794Z,15.30
2023-04-19T07:05:49.011Z,15.30
2023-04-19T07:08:16.433Z,15.30
2023-04-19T07:10:43.997Z,15.20
2023-04-19T07:13:11.633Z,15.30
2023-04-19T07:15:38.844Z,15.40
2023-04-19T07:18:06.006Z,15.30
2023-04-19T07:20:33.739Z,15.30
2023-04-19T07:23:00.918Z,15.30
2023-04-19T07:25:28.049Z,15.30
2023-04-19T07:27:55.666Z,15.30
2023-04-19T07:30:22.826Z,15.30
2023-04-19T07:32:51.917Z,15.30
2023-04-19T07:35:20.898Z,15.30
2023-04-19T07:37:48.082Z,15.20
2023-04-19T07:40:15.149Z,15.10
2023-04-19T07:42:43.651Z,15.00
2023-04-19T07:45:11.448Z,14.90
2023-04-19T07:47:38.546Z,15.00
2023-04-19T07:50:07.773Z,15.00
2023-04-19T07:52:34.814Z,15.10
2023-04-19T07:55:02.001Z,15.00
2023-04-19T07:57:29.073Z,15.00
2023-04-19T07:59:58.196Z,15.00
2023-04-19T08:02:28.703Z,15.00
2023-04-19T08:04:58.029Z,14.90
2023-04-19T08:07:26.238Z,14.90
2023-04-19T08:09:53.372Z,14.80
2023-04-19T08:15:03.882Z,14.90
2023-04-19T08:17:42.400Z,14.90
2023-04-19T08:20:11.804Z,15.30
2023-04-19T08:22:39.951Z,15.80
2023-04-19T08:25:08.056Z,15.70
2023-04-19T08:27:35.641Z,16.40
2023-04-19T08:30:03.572Z,17.10
2023-04-19T08:32:30.652Z,17.50
2023-04-19T08:34:57.771Z,17.60
2023-04-19T08:37:25.550Z,17.50
2023-04-19T08:39:52.590Z,17.70
2023-04-19T08:42:33.255Z,18.00
2023-04-19T08:50:23.926Z,17.60
2023-04-19T08:53:05.195Z,17.90
2023-04-19T08:56:04.312Z,18.00
2023-04-19T09:01:12.807Z,17.30
2023-04-19T09:04:01.238Z,17.20
2023-04-19T09:06:41.274Z,17.10
2023-04-19T09:11:57.472Z,16.90
2023-04-19T09:14:27.178Z,17.10
2023-04-19T09:16:54.450Z,17.20
2023-04-19T09:19:25.259Z,17.60
2023-04-19T09:21:54.706Z,18.10
2023-04-19T09:27:12.335Z,17.50
2023-04-19T09:29:39.786Z,17.40
2023-04-19T09:32:06.904Z,17.10
2023-04-19T09:34:33.939Z,16.90
2023-04-19T09:37:24.979Z,16.90
2023-04-19T09:40:00.322Z,16.90
2023-04-19T09:48:10.010Z,17.20
2023-04-19T09:50:58.319Z,17.10
2023-04-19T09:53:29.932Z,17.10
2023-04-19T09:56:02.050Z,17.60
2023-04-19T09:58:38.259Z,17.60
2023-04-19T10:01:16.736Z,17.50
2023-04-19T10:03:50.360Z,17.40
2023-04-19T10:08:51.440Z,17.50
2023-04-19T10:11:22.126Z,17.60
2023-04-19T10:13:53.880Z,17.80
2023-04-19T10:16:21.158Z,18.20
2023-04-19T10:18:50.735Z,18.80
2023-04-19T10:21:19.434Z,19.10
2023-04-19T10:23:47.251Z,19.40
2023-04-19T10:26:14.379Z,19.40
2023-04-19T10:28:42.662Z,19.40
2023-04-19T10:31:13.279Z,19.70
2023-04-19T10:33:41.217Z,19.70
2023-04-19T10:36:14.697Z,19.90
2023-04-19T10:38:44.777Z,19.50
2023-04-19T10:41:14.694Z,19.20
2023-04-19T10:43:57.786Z,19.30
2023-04-19T10:46:26.152Z,18.90
2023-04-19T10:49:00.943Z,18.60
2023-04-19T10:51:44.459Z,18.30
2023-04-19T10:54:31.493Z,18.30
2023-04-19T10:57:05.941Z,18.20
2023-04-19T10:59:44.413Z,18.30
2023-04-19T11:02:25.075Z,18.20
2023-04-19T11:04:52.305Z,18.10
2023-04-19T11:07:21.359Z,18.00
2023-04-19T11:09:49.909Z,18.00
2023-04-19T11:12:21.720Z,18.10
2023-04-19T11:14:59.786Z,18.00
2023-04-19T11:17:32.279Z,18.20
2023-04-19T11:20:07.090Z,18.30
2023-04-19T11:22:36.364Z,18.30
2023-04-19T11:25:09.493Z,18.40
2023-04-19T11:27:36.696Z,18.60
2023-04-19T11:30:09.308Z,19.40
2023-04-19T11:32:37.091Z,19.80
2023-04-19T11:35:08.940Z,19.40
2023-04-19T11:37:37.134Z,19.10
2023-04-19T11:40:06.543Z,19.30
2023-04-19T11:42:34.261Z,19.30
2023-04-19T11:45:01.821Z,19.30
2023-04-19T11:47:29.030Z,19.30
2023-04-19T11:49:58.946Z,19.00
2023-04-19T11:52:26.855Z,19.10
2023-04-19T11:54:54.440Z,19.20
2023-04-19T11:57:31.402Z,18.90
2023-04-19T12:00:12.451Z,18.30
2023-04-19T12:02:41.167Z,18.00
2023-04-19T12:05:10.433Z,17.90
2023-04-19T12:07:37.662Z,17.90
2023-04-19T12:10:14.254Z,17.80
2023-04-19T12:12:41.359Z,17.80
2023-04-19T12:15:09.081Z,18.50
2023-04-19T12:17:59.729Z,18.70
2023-04-19T12:20:38.036Z,18.50
2023-04-19T12:23:05.260Z,18.40
2023-04-19T12:25:34.160Z,18.70
2023-04-19T12:28:02.932Z,18.90
2023-04-19T12:30:30.665Z,19.10
2023-04-19T12:32:59.469Z,18.60
2023-04-19T12:35:30.111Z,18.50
2023-04-19T12:37:59.434Z,18.70
2023-04-19T12:40:27.520Z,18.50
2023-04-19T12:42:54.926Z,18.30
2023-04-19T12:45:22.111Z,18.10
2023-04-19T12:47:49.273Z,17.80
2023-04-19T12:50:16.729Z,18.10
2023-04-19T12:52:45.060Z,18.30
2023-04-19T12:55:12.192Z,18.30
2023-04-19T12:57:39.366Z,18.40
2023-04-19T13:00:07.513Z,18.30
2023-04-19T13:02:35.291Z,18.50
2023-04-19T13:05:05.174Z,18.70
2023-04-19T13:07:32.407Z,18.80
2023-04-19T13:09:59.865Z,18.90
2023-04-19T13:12:26.976Z,19.20
2023-04-19T13:14:53.959Z,19.40
2023-04-19T13:17:21.554Z,19.40
2023-04-19T13:19:48.555Z,19.40
2023-04-19T13:22:15.770Z,19.00
2023-04-19T13:24:42.725Z,18.80
2023-04-19T13:27:10.032Z,18.70
2023-04-19T13:29:37.762Z,18.70
2023-04-19T13:32:07.680Z,18.80
2023-04-19T13:34:35.757Z,18.70
2023-04-19T13:37:02.765Z,18.70
2023-04-19T13:39:29.752Z,18.70
2023-04-19T13:41:56.899Z,18.80
2023-04-19T13:44:25.361Z,18.70
2023-04-19T13:46:52.533Z,18.70
2023-04-19T13:49:19.661Z,18.80
2023-04-19T13:51:50.653Z,18.70
2023-04-19T13:54:19.459Z,18.40
2023-04-19T13:56:49.824Z,18.50
2023-04-19T13:59:18.569Z,18.60
2023-04-19T14:01:45.602Z,19.00
2023-04-19T14:04:12.889Z,19.00
2023-04-19T14:06:40.341Z,18.90
2023-04-19T14:09:07.382Z,18.60
2023-04-19T14:11:34.683Z,18.80
2023-04-19T14:14:07.711Z,19.10
2023-04-19T14:16:34.813Z,19.30
2023-04-19T14:19:02.054Z,19.40
2023-04-19T14:21:30.146Z,19.60
2023-04-19T14:23:57.242Z,19.50
2023-04-19T14:26:26.317Z,19.20
2023-04-19T14:28:54.589Z,18.60
2023-04-19T14:31:21.681Z,18.80
2023-04-19T14:33:48.747Z,18.40
2023-04-19T14:36:15.955Z,18.40
2023-04-19T14:38:42.941Z,18.20
2023-04-19T14:41:09.970Z,18.10
2023-04-19T14:43:37.010Z,18.00
2023-04-19T14:46:04.058Z,18.20
2023-04-19T14:48:31.285Z,17.90
2023-04-19T14:50:58.417Z,17.80
2023-04-19T14:53:25.587Z,17.50
2023-04-19T14:55:52.569Z,17.30
2023-04-19T14:58:19.630Z,17.40
2023-04-19T15:00:46.748Z,17.30
2023-04-19T15:03:13.854Z,17.20
2023-04-19T15:05:41.175Z,17.00
2023-04-19T15:08:17.383Z,16.70
2023-04-19T15:10:54.080Z,16.50
2023-04-19T15:13:21.287Z,16.40
2023-04-19T15:15:48.570Z,16.40
2023-04-19T15:18:16.231Z,16.40
2023-04-19T15:20:43.217Z,16.30
2023-04-19T15:23:10.312Z,16.20
2023-04-19T15:25:37.388Z,16.20
2023-04-19T15:28:04.658Z,16.30
2023-04-19T15:30:31.681Z,16.10
2023-04-19T15:32:58.633Z,16.00
2023-04-19T15:35:25.883Z,15.90
2023-04-19T15:37:52.896Z,16.00
2023-04-19T15:40:19.931Z,15.70
2023-04-19T15:42:46.947Z,15.60
2023-04-19T15:45:14.105Z,15.60
2023-04-19T15:47:41.145Z,15.70
2023-04-19T15:50:08.768Z,15.50
2023-04-19T15:52:36.692Z,15.40
2023-04-19T15:55:03.903Z,15.40
2023-04-19T15:57:30.915Z,15.20
2023-04-19T15:59:57.925Z,15.20
2023-04-19T16:02:25.175Z,15.20
2023-04-19T16:04:52.453Z,15.00
2023-04-19T16:07:19.524Z,14.70
2023-04-19T16:09:46.497Z,14.60
2023-04-19T16:12:13.488Z,14.50
2023-04-19T16:14:40.516Z,14.60
2023-04-19T16:17:07.740Z,14.40
2023-04-19T16:19:35.719Z,14.40
2023-04-19T16:22:05.372Z,14.20
2023-04-19T16:24:32.438Z,14.00
2023-04-19T16:26:59.428Z,13.80
2023-04-19T16:29:26.757Z,13.60
2023-04-19T16:31:53.814Z,13.50
2023-04-19T16:34:21.351Z,13.50
2023-04-19T16:36:48.336Z,13.50
2023-04-19T16:39:15.981Z,13.70
2023-04-19T16:41:43.966Z,13.60
2023-04-19T16:44:11.773Z,13.60
2023-04-19T16:46:38.870Z,13.50
2023-04-19T16:49:06.214Z,13.60
2023-04-19T16:51:33.578Z,13.70
2023-04-19T16:54:01.012Z,13.80
2023-04-19T16:56:28.053Z,14.00
2023-04-19T16:58:56.570Z,14.00
2023-04-19T17:01:25.137Z,14.10
2023-04-19T17:03:52.612Z,14.10
2023-04-19T17:06:19.839Z,14.20
2023-04-19T17:08:47.021Z,14.30
2023-04-19T17:11:14.069Z,14.30
2023-04-19T17:13:41.358Z,14.40
2023-04-19T17:16:11.739Z,14.30
2023-04-19T17:18:39.737Z,14.30
2023-04-19T17:21:07.117Z,14.30
2023-04-19T17:23:34.178Z,14.20
2023-04-19T17:26:04.378Z,14.20
2023-04-19T17:28:31.751Z,14.10
2023-04-19T17:30:59.164Z,14.10
2023-04-19T17:33:26.293Z,14.10
2023-04-19T17:35:53.494Z,14.10
2023-04-19T17:38:21.946Z,14.00
2023-04-19T17:40:49.076Z,14.00
2023-04-19T17:43:16.778Z,13.90
2023-04-19T17:45:43.924Z,13.90
2023-04-19T17:48:11.668Z,13.90
2023-04-19T17:50:39.138Z,13.80
2023-04-19T17:53:07.052Z,13.80
2023-04-19T17:55:34.897Z,13.80
2023-04-19T17:58:03.865Z,13.80
2023-04-19T18:00:32.255Z,13.70
2023-04-19T18:03:00.198Z,13.60
2023-04-19T18:05:28.144Z,13.60
2023-04-19T18:07:56.695Z,13.50
2023-04-19T18:10:43.980Z,13.50
2023-04-19T18:13:11.592Z,13.50
2023-04-19T18:15:39.829Z,13.40
2023-04-19T18:18:07.571Z,13.40
2023-04-19T18:20:38.213Z,13.40
2023-04-19T18:23:06.403Z,13.30
2023-04-19T18:25:37.071Z,13.30
2023-04-19T18:28:05.104Z,13.20
2023-04-19T18:30:34.296Z,13.20
2023-04-19T18:33:02.282Z,13.10
2023-04-19T18:35:30.635Z,13.10
2023-04-19T18:37:59.607Z,13.10
2023-04-19T18:40:28.003Z,13.10
2023-04-19T18:42:56.320Z,13.00
2023-04-19T18:45:24.401Z,12.90
2023-04-19T18:47:52.930Z,12.90
2023-04-19T18:50:21.781Z,12.80
2023-04-19T18:52:49.638Z,12.80
2023-04-19T18:55:19.365Z,12.80
2023-04-19T18:57:47.421Z,12.80
2023-04-19T19:00:16.296Z,12.70
2023-04-19T19:02:45.313Z,12.70
2023-04-19T19:05:16.649Z,12.70
2023-04-19T19:07:46.050Z,12.60
2023-04-19T19:10:19.063Z,12.50
2023-04-19T19:12:50.614Z,12.50
2023-04-19T19:15:19.099Z,12.50
2023-04-19T19:17:49.864Z,12.50
2023-04-19T19:20:19.822Z,12.50
2023-04-19T19:22:48.756Z,12.40
2023-04-19T19:25:17.030Z,12.40
2023-04-19T19:28:02.919Z,12.40
2023-04-19T19:30:35.250Z,12.30
2023-04-19T19:33:05.349Z,12.30
2023-04-19T19:35:34.822Z,12.20
2023-04-19T19:38:02.977Z,12.20
2023-04-19T19:40:32.679Z,12.20
2023-04-19T19:43:03.310Z,12.20
2023-04-19T19:45:33.181Z,12.20
2023-04-19T19:48:04.059Z,12.10
2023-04-19T19:53:03.152Z,12.10
2023-04-19T19:55:33.476Z,12.00
2023-04-19T19:58:32.740Z,12.00
2023-04-19T20:00:52.752Z,12.00
2023-04-19T20:03:35.323Z,12.00
2023-04-19T20:08:44.180Z,12.00
2023-04-19T20:11:13.245Z,12.00
2023-04-19T20:13:41.293Z,12.00
2023-04-19T20:16:10.176Z,11.90
2023-04-19T20:18:38.546Z,11.90
2023-04-19T20:21:06.775Z,11.90
2023-04-19T20:23:40.570Z,11.80
2023-04-19T20:26:08.982Z,11.80
2023-04-19T20:28:36.916Z,11.80
2023-04-19T20:31:07.112Z,11.70
2023-04-19T20:33:34.505Z,11.70
2023-04-19T20:36:02.507Z,11.60
2023-04-19T20:38:30.457Z,11.60
2023-04-19T20:40:58.421Z,11.50
2023-04-19T20:43:27.651Z,11.50
2023-04-19T20:45:55.537Z,11.50
2023-04-19T20:48:23.210Z,11.50
2023-04-19T20:50:51.060Z,11.50
2023-04-19T20:53:18.263Z,11.50
2023-04-19T20:55:45.801Z,11.50
2023-04-19T20:58:13.422Z,11.40
2023-04-19T21:00:41.990Z,11.30
2023-04-19T21:03:09.244Z,11.40
2023-04-19T21:05:36.681Z,11.40
2023-04-19T21:08:03.845Z,11.40
2023-04-19T21:10:30.960Z,11.40
2023-04-19T21:12:57.999Z,11.30
2023-04-19T21:15:25.062Z,11.30
2023-04-19T21:17:52.156Z,11.30
2023-04-19T21:20:19.283Z,11.30
2023-04-19T21:22:47.290Z,11.20
2023-04-19T21:25:14.671Z,11.20
2023-04-19T21:27:42.306Z,11.20
2023-04-19T21:30:10.757Z,11.20
2023-04-19T21:32:37.795Z,11.10
2023-04-19T21:35:05.116Z,11.10
2023-04-19T21:37:32.390Z,11.10
2023-04-19T21:39:59.515Z,11.10
2023-04-19T21:42:26.529Z,11.00
2023-04-19T21:44:53.506Z,11.00
2023-04-19T21:47:20.889Z,10.90
2023-04-19T21:49:47.952Z,10.90
2023-04-19T21:52:15.071Z,10.90
2023-04-19T21:54:42.080Z,10.80
2023-04-19T21:57:09.195Z,10.80
2023-04-19T21:59:37.902Z,10.70
2023-04-19T22:02:05.108Z,10.70
2023-04-19T22:04:32.362Z,10.70
2023-04-19T22:07:02.959Z,10.70
2023-04-19T22:09:31.000Z,10.60
2023-04-19T22:11:58.124Z,10.60
2023-04-19T22:14:25.137Z,10.60
2023-04-19T22:16:53.903Z,10.60
2023-04-19T22:19:21.278Z,10.60
2023-04-19T22:21:48.482Z,10.60
2023-04-19T22:24:15.995Z,10.50
2023-04-19T22:26:43.455Z,10.50
2023-04-19T22:29:10.621Z,10.50
2023-04-19T22:31:37.672Z,10.50
2023-04-19T22:34:04.856Z,10.50
2023-04-19T22:36:31.937Z,10.50
2023-04-19T22:38:59.168Z,10.40
2023-04-19T22:41:26.212Z,10.40
2023-04-19T22:43:54.532Z,10.30
2023-04-19T22:46:21.624Z,10.30
2023-04-19T22:48:49.968Z,10.30
2023-04-19T22:51:20.243Z,10.30
2023-04-19T22:53:47.426Z,10.20
2023-04-19T22:56:14.502Z,10.30
2023-04-19T22:58:41.464Z,10.20
2023-04-19T23:01:08.594Z,10.20
2023-04-19T23:03:35.979Z,10.20
2023-04-19T23:06:03.793Z,10.10
2023-04-19T23:08:31.062Z,10.10
2023-04-19T23:10:58.208Z,10.10
2023-04-19T23:13:25.322Z,10.00
2023-04-19T23:15:52.910Z,10.00
2023-04-19T23:18:21.385Z,10.00
2023-04-19T23:20:48.471Z,9.80
2023-04-19T23:23:15.613Z,9.90
2023-04-19T23:25:42.746Z,9.60
2023-04-19T23:28:12.412Z,9.70
2023-04-19T23:30:39.616Z,9.80
2023-04-19T23:33:06.811Z,9.80
2023-04-19T23:35:33.877Z,9.80
2023-04-19T23:38:01.181Z,9.90
2023-04-19T23:40:28.306Z,9.80
2023-04-19T23:42:55.381Z,9.80
2023-04-19T23:45:22.584Z,9.80
2023-04-19T23:47:50.018Z,9.80
2023-04-19T23:50:17.061Z,9.70
2023-04-19T23:52:44.035Z,9.70
2023-04-19T23:55:11.137Z,9.70
2023-04-19T23:57:38.165Z,9.70
